createdAt,value
2022-12-03T00:01:12.620Z,92730.56
2022-12-03T00:04:15.744Z,92722.38
2022-12-03T00:07:18.780Z,92727.56
2022-12-03T00:10:21.873Z,92735.78
2022-12-03T00:13:25.126Z,92728.34
2022-12-03T00:16:28.382Z,92725.84
2022-12-03T00:19:31.597Z,92742.72
2022-12-03T00:22:34.847Z,92745.88
2022-12-03T00:25:37.973Z,92736.34
2022-12-03T00:28:41.654Z,92742.72
2022-12-03T00:31:46.190Z,92742.72
2022-12-03T00:34:49.321Z,92741.75
2022-12-03T00:37:52.422Z,92740.50
2022-12-03T00:40:55.459Z,92737.22
2022-12-03T00:43:58.565Z,92743.28
2022-12-03T00:47:01.773Z,92738.28
2022-12-03T00:50:06.329Z,92742.25
2022-12-03T00:53:09.384Z,92744.88
2022-12-03T00:56:12.548Z,92752.00
2022-12-03T00:59:15.654Z,92757.50
2022-12-03T01:02:18.909Z,92749.09
2022-12-03T01:05:22.304Z,92752.75
2022-12-03T01:08:25.539Z,92753.09
2022-12-03T01:11:41.907Z,92758.03
2022-12-03T01:14:45.040Z,92759.41
2022-12-03T01:17:48.089Z,92769.59
2022-12-03T01:20:51.212Z,92780.63
2022-12-03T01:23:54.717Z,92779.25
2022-12-03T01:26:58.415Z,92785.84
2022-12-03T01:30:01.546Z,92782.13
2022-12-03T01:33:04.598Z,92788.50
2022-12-03T01:36:07.959Z,92787.69
2022-12-03T01:39:11.139Z,92785.69
2022-12-03T01:42:23.594Z,92786.88
2022-12-03T01:45:26.767Z,92793.56
2022-12-03T01:48:36.439Z,92793.81
2022-12-03T01:51:39.669Z,92798.88
2022-12-03T01:54:48.050Z,92801.50
2022-12-03T01:57:54.660Z,92804.66
2022-12-03T02:01:02.497Z,92799.19
2022-12-03T02:04:05.802Z,92809.97
2022-12-03T02:07:29.346Z,92803.69
2022-12-03T02:10:35.134Z,92815.66
2022-12-03T02:13:38.497Z,92811.00
2022-12-03T02:16:42.849Z,92816.06
2022-12-03T02:19:46.213Z,92805.41
2022-12-03T02:22:58.480Z,92809.78
2022-12-03T02:26:01.737Z,92807.63
2022-12-03T02:29:04.952Z,92819.41
2022-12-03T02:32:08.212Z,92821.63
2022-12-03T02:35:17.124Z,92829.94
2022-12-03T02:38:26.337Z,92830.28
2022-12-03T02:41:48.523Z,92829.78
2022-12-03T02:44:52.462Z,92821.75
2022-12-03T02:47:55.341Z,92827.28
2022-12-03T02:51:09.400Z,92820.06
2022-12-03T02:54:12.674Z,92813.50
2022-12-03T02:57:17.173Z,92811.50
2022-12-03T03:00:21.178Z,92809.31
2022-12-03T03:03:27.764Z,92808.50
2022-12-03T03:06:31.210Z,92815.56
2022-12-03T03:09:35.295Z,92809.38
2022-12-03T03:12:39.521Z,92809.72
2022-12-03T03:15:43.912Z,92817.75
2022-12-03T03:18:46.666Z,92810.34
2022-12-03T03:21:50.274Z,92807.16
2022-12-03T03:24:56.874Z,92810.38
2022-12-03T03:27:59.990Z,92806.16
2022-12-03T03:31:04.464Z,92804.81
2022-12-03T03:34:07.886Z,92803.44
2022-12-03T03:37:11.010Z,92810.19
2022-12-03T03:40:14.441Z,92801.25
2022-12-03T03:43:18.007Z,92805.78
2022-12-03T03:46:22.362Z,92810.47
2022-12-03T03:49:25.748Z,92809.28
2022-12-03T03:52:29.190Z,92806.72
2022-12-03T03:55:32.979Z,92814.91
2022-12-03T03:58:37.126Z,92814.69
2022-12-03T04:01:40.532Z,92817.88
2022-12-03T04:04:43.658Z,92812.19
2022-12-03T04:07:47.338Z,92810.44
2022-12-03T04:11:09.011Z,92810.19
2022-12-03T04:14:12.201Z,92813.50
2022-12-03T04:17:15.258Z,92814.72
2022-12-03T04:20:18.750Z,92821.59
2022-12-03T04:23:24.954Z,92824.47
2022-12-03T04:26:50.431Z,92822.75
2022-12-03T04:29:54.386Z,92831.44
2022-12-03T04:33:16.641Z,92827.41
2022-12-03T04:36:19.797Z,92835.13
2022-12-03T04:39:23.048Z,92834.13
2022-12-03T04:42:26.108Z,92824.78
2022-12-03T04:45:29.263Z,92828.09
2022-12-03T04:48:32.608Z,92822.97
2022-12-03T04:51:35.800Z,92821.47
2022-12-03T04:54:40.269Z,92826.97
2022-12-03T04:57:43.348Z,92835.22
2022-12-03T05:00:46.421Z,92841.22
2022-12-03T05:03:49.783Z,92839.22
2022-12-03T05:06:53.191Z,92835.44
2022-12-03T05:09:56.440Z,92835.09
2022-12-03T05:13:00.294Z,92835.09
2022-12-03T05:16:03.479Z,92828.84
2022-12-03T05:19:08.896Z,92840.53
2022-12-03T05:22:12.016Z,92835.81
2022-12-03T05:25:15.175Z,92837.31
2022-12-03T05:28:18.550Z,92842.59
2022-12-03T05:31:21.742Z,92833.81
2022-12-03T05:34:24.901Z,92842.59
2022-12-03T05:37:28.011Z,92837.88
2022-12-03T05:40:31.232Z,92839.59
2022-12-03T05:43:34.348Z,92843.63
2022-12-03T05:46:37.459Z,92832.81
2022-12-03T05:49:40.687Z,92825.72
2022-12-03T05:52:44.327Z,92830.47
2022-12-03T05:55:47.701Z,92830.47
2022-12-03T05:58:50.903Z,92837.81
2022-12-03T06:01:53.973Z,92839.53
2022-12-03T06:04:57.073Z,92841.44
2022-12-03T06:08:00.335Z,92847.06
2022-12-03T06:11:04.257Z,92836.47
2022-12-03T06:14:07.814Z,92845.34
2022-12-03T06:17:10.947Z,92840.31
2022-12-03T06:20:16.552Z,92845.50
2022-12-03T06:23:19.806Z,92837.13
2022-12-03T06:26:22.892Z,92840.38
2022-12-03T06:29:26.092Z,92831.94
2022-12-03T06:32:29.194Z,92838.34
2022-12-03T06:35:32.790Z,92836.06
2022-12-03T06:38:36.305Z,92827.81
2022-12-03T06:41:39.745Z,92837.16
2022-12-03T06:44:42.853Z,92836.81
2022-12-03T06:47:46.131Z,92843.09
2022-12-03T06:50:49.246Z,92841.41
2022-12-03T06:53:52.588Z,92836.34
2022-12-03T06:56:55.649Z,92836.09
2022-12-03T06:59:58.728Z,92843.59
2022-12-03T07:03:01.961Z,92838.22
2022-12-03T07:06:05.261Z,92848.63
2022-12-03T07:09:08.445Z,92852.50
2022-12-03T07:12:11.545Z,92850.53
2022-12-03T07:15:15.129Z,92848.66
2022-12-03T07:18:18.190Z,92852.06
2022-12-03T07:21:21.247Z,92850.22
2022-12-03T07:24:24.326Z,92859.88
2022-12-03T07:27:27.410Z,92865.16
2022-12-03T07:30:30.560Z,92862.72
2022-12-03T07:33:33.674Z,92862.22
2022-12-03T07:36:36.843Z,92873.56
2022-12-03T07:39:39.960Z,92879.97
2022-12-03T07:42:43.136Z,92864.66
2022-12-03T07:45:46.248Z,92876.81
2022-12-03T07:48:49.521Z,92873.25
2022-12-03T07:51:56.755Z,92873.81
2022-12-03T07:54:59.899Z,92874.69
2022-12-03T07:58:03.113Z,92870.53
2022-12-03T08:01:08.690Z,92867.88
2022-12-03T08:04:13.626Z,92877.00
2022-12-03T08:07:16.813Z,92879.22
2022-12-03T08:10:20.000Z,92886.84
2022-12-03T08:13:23.201Z,92883.81
2022-12-03T08:16:27.600Z,92879.13
2022-12-03T08:19:30.921Z,92875.94
2022-12-03T08:22:33.960Z,92879.47
2022-12-03T08:25:37.062Z,92885.88
2022-12-03T08:28:40.663Z,92891.09
2022-12-03T08:31:49.520Z,92885.53
2022-12-03T08:34:53.039Z,92896.81
2022-12-03T08:38:14.481Z,92893.09
2022-12-03T08:41:38.929Z,92893.72
2022-12-03T08:44:42.288Z,92890.56
2022-12-03T08:47:45.451Z,92893.38
2022-12-03T08:50:49.028Z,92904.63
2022-12-03T08:54:01.935Z,92896.25
2022-12-03T08:57:25.348Z,92897.91
2022-12-03T09:00:28.603Z,92902.63
2022-12-03T09:03:32.744Z,92911.34
2022-12-03T09:06:35.640Z,92906.81
2022-12-03T09:09:39.370Z,92905.47
2022-12-03T09:12:42.605Z,92902.78
2022-12-03T09:15:45.933Z,92905.47
2022-12-03T09:18:49.210Z,92909.66
2022-12-03T09:21:52.951Z,92914.69
2022-12-03T09:24:56.414Z,92903.94
2022-12-03T09:27:59.527Z,92912.34
2022-12-03T09:31:02.774Z,92907.13
2022-12-03T09:34:06.644Z,92908.97
2022-12-03T09:37:10.360Z,92909.84
2022-12-03T09:40:15.201Z,92912.84
2022-12-03T09:43:19.616Z,92915.88
2022-12-03T09:46:23.752Z,92915.03
2022-12-03T09:49:28.423Z,92914.84
2022-12-03T12:51:15.784Z,93021.44
2022-12-03T12:54:19.558Z,93019.84
2022-12-03T12:57:24.944Z,93022.38
2022-12-03T13:00:28.188Z,93032.25
2022-12-03T13:03:35.399Z,93041.66
2022-12-03T13:06:38.539Z,93052.56
2022-12-03T13:09:42.068Z,93059.31
2022-12-03T13:12:45.750Z,93054.44
2022-12-03T13:15:51.104Z,93064.34
2022-12-03T13:19:01.776Z,93062.00
2022-12-03T13:22:16.480Z,93063.97
2022-12-03T13:25:59.182Z,93061.31
2022-12-03T13:29:07.714Z,93069.69
2022-12-03T13:32:23.301Z,93071.53
2022-12-03T13:40:28.643Z,93075.72
2022-12-03T13:43:33.669Z,93070.03
2022-12-03T13:46:37.128Z,93074.72
2022-12-03T13:49:42.545Z,93072.03
2022-12-03T13:52:45.856Z,93074.72
2022-12-03T13:55:59.657Z,93078.78
2022-12-03T13:59:04.654Z,93073.59
2022-12-03T14:02:08.522Z,93085.47
2022-12-03T14:05:12.032Z,93088.84
2022-12-03T14:08:16.404Z,93089.03
2022-12-03T14:11:38.608Z,93095.63
2022-12-03T14:14:42.284Z,93093.28
2022-12-03T14:17:45.340Z,93086.72
2022-12-03T14:20:48.968Z,93096.81
2022-12-03T14:23:52.173Z,93093.59
2022-12-03T14:26:55.295Z,93112.25
2022-12-03T14:29:58.782Z,93107.03
2022-12-03T14:33:02.260Z,93109.75
2022-12-03T14:36:05.639Z,93107.41
2022-12-03T14:39:09.182Z,93109.16
2022-12-03T14:42:15.368Z,93105.13
2022-12-03T14:45:18.376Z,93117.09
2022-12-03T14:48:21.612Z,93115.94
2022-12-03T14:51:24.682Z,93123.50
2022-12-03T14:54:28.118Z,93121.34
2022-12-03T14:57:31.216Z,93122.50
2022-12-03T15:00:34.543Z,93121.53
2022-12-03T15:03:37.635Z,93120.53
2022-12-03T15:06:40.802Z,93123.53
2022-12-03T15:09:44.281Z,93126.56
2022-12-03T15:12:47.346Z,93125.22
2022-12-03T15:15:50.597Z,93133.94
2022-12-03T15:18:54.273Z,93130.25
2022-12-03T15:21:57.298Z,93132.09
2022-12-03T15:25:00.497Z,93130.06
2022-12-03T15:28:05.948Z,93117.28
2022-12-03T15:31:09.894Z,93127.00
2022-12-03T15:34:18.769Z,93132.03
2022-12-03T15:37:28.223Z,93138.25
2022-12-03T15:40:31.403Z,93141.44
2022-12-03T15:43:34.477Z,93138.94
2022-12-03T15:46:37.638Z,93144.63
2022-12-03T15:49:40.828Z,93140.09
2022-12-03T15:52:43.980Z,93134.38
2022-12-03T15:55:47.064Z,93138.56
2022-12-03T15:58:50.265Z,93149.34
2022-12-03T16:01:53.558Z,93148.31
2022-12-03T16:04:58.162Z,93156.56
2022-12-03T16:08:01.307Z,93151.16
2022-12-03T16:11:04.718Z,93150.97
2022-12-03T16:14:07.729Z,93148.56
2022-12-03T16:17:10.864Z,93143.34
2022-12-03T16:20:13.917Z,93148.69
2022-12-03T16:23:16.926Z,93151.91
2022-12-03T16:26:20.041Z,93138.25
2022-12-03T16:29:24.258Z,93137.91
2022-12-03T16:32:27.363Z,93142.56
2022-12-03T16:35:30.478Z,93144.91
2022-12-03T16:38:34.352Z,93136.97
2022-12-03T16:41:37.392Z,93129.25
2022-12-03T16:45:15.550Z,93140.28
2022-12-03T16:48:19.557Z,93142.63
2022-12-03T16:51:23.144Z,93148.34
2022-12-03T16:54:26.325Z,93141.38
2022-12-03T16:57:33.659Z,93142.06
2022-12-03T17:00:37.263Z,93160.16
2022-12-03T17:03:40.475Z,93157.19
2022-12-03T17:06:43.563Z,93162.00
2022-12-03T17:09:46.624Z,93169.56
2022-12-03T17:16:13.000Z,93180.97
2022-12-03T17:19:16.714Z,93181.47
2022-12-03T17:22:21.749Z,93188.19
2022-12-03T17:25:25.013Z,93192.53
2022-12-03T17:28:29.242Z,93194.16
2022-12-03T17:31:36.990Z,93189.03
2022-12-03T17:34:43.116Z,93179.44
2022-12-03T17:37:46.443Z,93174.25
2022-12-03T17:40:49.827Z,93171.72
2022-12-03T17:43:54.500Z,93174.03
2022-12-03T17:46:57.606Z,93174.03
2022-12-03T17:50:00.727Z,93174.50
2022-12-03T17:53:06.017Z,93176.53
2022-12-03T17:56:09.104Z,93170.84
2022-12-03T17:59:13.795Z,93175.38
2022-12-03T18:02:16.960Z,93174.69
2022-12-03T18:05:20.261Z,93177.91
2022-12-03T18:08:23.588Z,93170.84
2022-12-03T18:11:26.816Z,93174.50
2022-12-03T18:14:29.915Z,93183.41
2022-12-03T18:17:33.051Z,93187.09
2022-12-03T18:20:36.654Z,93176.53
2022-12-03T18:23:40.175Z,93187.78
2022-12-03T18:26:43.974Z,93190.81
2022-12-03T18:29:47.023Z,93195.16
2022-12-03T18:32:51.238Z,93205.41
2022-12-03T18:35:56.846Z,93195.84
2022-12-03T18:39:01.642Z,93196.31
2022-12-03T18:42:30.723Z,93207.75
2022-12-03T18:45:33.837Z,93205.69
2022-12-03T18:48:36.919Z,93208.53
2022-12-03T18:51:40.028Z,93211.53
2022-12-03T18:54:45.544Z,93219.56
2022-12-03T18:57:48.653Z,93211.16
2022-12-03T19:00:51.813Z,93198.38
2022-12-03T19:03:56.708Z,93203.88
2022-12-03T19:07:01.091Z,93207.59
2022-12-03T19:10:05.419Z,93198.69
2022-12-03T19:13:08.529Z,93190.47
2022-12-03T19:16:13.014Z,93198.47
2022-12-03T19:19:17.463Z,93196.16
2022-12-03T19:22:20.473Z,93200.88
2022-12-03T19:25:23.571Z,93197.69
2022-12-03T19:28:28.343Z,93205.44
2022-12-03T19:31:33.935Z,93206.81
2022-12-03T19:34:37.215Z,93212.00
2022-12-03T19:37:40.425Z,93202.81
2022-12-03T19:40:43.575Z,93206.97
2022-12-03T19:43:55.158Z,93213.34
2022-12-03T19:46:58.334Z,93210.16
2022-12-03T19:50:01.507Z,93202.41
2022-12-03T19:53:04.555Z,93191.50
2022-12-03T19:56:16.128Z,93174.88
2022-12-03T19:59:19.154Z,93167.31
2022-12-03T20:02:22.277Z,93168.25
2022-12-03T20:05:30.339Z,93161.59
2022-12-03T20:08:39.070Z,93167.22
2022-12-03T20:11:45.113Z,93164.34
2022-12-03T20:14:48.183Z,93171.47
2022-12-03T20:17:51.241Z,93171.31
2022-12-03T20:20:58.526Z,93172.09
2022-12-03T20:24:02.029Z,93167.16
2022-12-03T20:27:05.110Z,93175.66
2022-12-03T20:30:08.733Z,93177.34
2022-12-03T20:33:12.821Z,93175.75
2022-12-03T20:36:16.825Z,93171.22
2022-12-03T20:39:19.927Z,93178.13
2022-12-03T20:42:24.211Z,93184.66
2022-12-03T20:45:27.900Z,93190.59
2022-12-03T20:48:31.001Z,93191.25
2022-12-03T20:51:34.318Z,93186.41
2022-12-03T20:54:37.462Z,93184.38
2022-12-03T20:57:40.454Z,93189.13
2022-12-03T21:00:43.593Z,93189.81
2022-12-03T21:03:47.197Z,93195.00
2022-12-03T21:06:50.317Z,93207.59
2022-12-03T21:09:53.559Z,93207.59
2022-12-03T21:12:56.953Z,93204.91
2022-12-03T21:16:06.625Z,93196.00
2022-12-03T21:19:09.837Z,93198.13
2022-12-03T21:22:12.934Z,93194.72
2022-12-03T21:25:15.992Z,93207.97
2022-12-03T21:28:19.099Z,93207.97
2022-12-03T21:31:26.415Z,93198.13
2022-12-03T21:34:35.841Z,93207.00
2022-12-03T21:37:39.544Z,93209.13
2022-12-03T21:40:42.663Z,93207.78
2022-12-03T21:43:45.772Z,93217.47
2022-12-03T21:47:09.617Z,93205.88
2022-12-03T21:50:12.108Z,93207.03
2022-12-03T21:53:15.152Z,93205.19
2022-12-03T21:56:20.155Z,93204.19
2022-12-03T21:59:23.238Z,93205.19
2022-12-03T22:02:28.640Z,93206.63
2022-12-03T22:05:31.646Z,93206.75
2022-12-03T22:08:34.817Z,93224.91
2022-12-03T22:11:37.954Z,93223.53
2022-12-03T22:14:41.048Z,93219.16
2022-12-03T22:17:44.235Z,93221.47
2022-12-03T22:20:47.460Z,93224.84
2022-12-03T22:23:50.565Z,93233.06
2022-12-03T22:26:55.334Z,93235.22
2022-12-03T22:29:58.530Z,93230.00
2022-12-03T22:33:01.647Z,93225.38
2022-12-03T22:36:07.740Z,93233.72
2022-12-03T22:39:10.932Z,93218.13
2022-12-03T22:42:14.209Z,93222.97
2022-12-03T22:45:17.401Z,93228.41
2022-12-03T22:48:20.449Z,93226.56
2022-12-03T22:51:25.960Z,93228.81
2022-12-03T22:54:29.080Z,93229.66
2022-12-03T22:57:32.659Z,93234.59
2022-12-03T23:00:38.681Z,93226.78
2022-12-03T23:03:42.027Z,93235.78
2022-12-03T23:06:45.264Z,93238.06
2022-12-03T23:09:48.306Z,93226.97
2022-12-03T23:12:51.371Z,93226.06
2022-12-03T23:15:54.488Z,93233.84
2022-12-03T23:19:02.063Z,93241.84
2022-12-03T23:22:05.270Z,93239.53
2022-12-03T23:25:09.063Z,93230.84
2022-12-03T23:28:13.174Z,93245.16
2022-12-03T23:31:21.108Z,93242.81
2022-12-03T23:34:24.349Z,93248.34
2022-12-03T23:37:27.618Z,93249.88
2022-12-03T23:40:30.936Z,93251.53
2022-12-03T23:43:34.075Z,93252.97
2022-12-03T23:46:40.541Z,93260.03
2022-12-03T23:49:43.783Z,93266.81
2022-12-03T23:52:47.098Z,93273.00
2022-12-03T23:55:50.521Z,93270.38
2022-12-03T23:58:53.636Z,93271.47
